sensor_id;sensor_type;location;lat;lon;timestamp;pressure;altitude;pressure_sealevel;temperature
20736;BMP180;10528;52.124;5.196;2024-03-02T00:00:50;99617.00;;;14.60
20736;BMP180;10528;52.124;5.196;2024-03-02T00:03:19;99636.00;;;14.60
20736;BMP180;10528;52.124;5.196;2024-03-02T00:05:51;99619.00;;;14.60
20736;BMP180;10528;52.124;5.196;2024-03-02T00:08:25;99639.00;;;14.60
20736;BMP180;10528;52.124;5.196;2024-03-02T00:10:58;99641.00;;;14.60
20736;BMP180;10528;52.124;5.196;2024-03-02T00:13:28;99649.00;;;14.70
20736;BMP180;10528;52.124;5.196;2024-03-02T00:15:58;99661.00;;;14.70
20736;BMP180;10528;52.124;5.196;2024-03-02T00:18:27;99673.00;;;14.70
20736;BMP180;10528;52.124;5.196;2024-03-02T00:20:57;99725.00;;;14.70
20736;BMP180;10528;52.124;5.196;2024-03-02T00:23:29;99743.00;;;14.70
20736;BMP180;10528;52.124;5.196;2024-03-02T00:25:58;99741.00;;;14.70
20736;BMP180;10528;52.124;5.196;2024-03-02T00:28:36;99731.00;;;14.70
20736;BMP180;10528;52.124;5.196;2024-03-02T00:31:09;99724.00;;;14.70
20736;BMP180;10528;52.124;5.196;2024-03-02T00:33:47;99730.00;;;14.70
20736;BMP180;10528;52.124;5.196;2024-03-02T00:36:17;99724.00;;;14.80
20736;BMP180;10528;52.124;5.196;2024-03-02T00:38:50;99733.00;;;14.70
20736;BMP180;10528;52.124;5.196;2024-03-02T00:41:31;99717.00;;;14.80
20736;BMP180;10528;52.124;5.196;2024-03-02T00:44:04;99729.00;;;14.70
20736;BMP180;10528;52.124;5.196;2024-03-02T00:46:36;99742.00;;;14.70
20736;BMP180;10528;52.124;5.196;2024-03-02T00:51:39;99720.00;;;14.70
20736;BMP180;10528;52.124;5.196;2024-03-02T00:54:09;99735.00;;;14.70
20736;BMP180;10528;52.124;5.196;2024-03-02T00:56:36;99739.00;;;14.70
20736;BMP180;10528;52.124;5.196;2024-03-02T00:59:03;99743.00;;;14.60
20736;BMP180;10528;52.124;5.196;2024-03-02T01:01:30;99754.00;;;14.60
20736;BMP180;10528;52.124;5.196;2024-03-02T01:04:00;99755.00;;;14.60
20736;BMP180;10528;52.124;5.196;2024-03-02T01:06:27;99745.00;;;14.60
20736;BMP180;10528;52.124;5.196;2024-03-02T01:08:54;99729.00;;;14.50
20736;BMP180;10528;52.124;5.196;2024-03-02T01:11:21;99723.00;;;14.50
20736;BMP180;10528;52.124;5.196;2024-03-02T01:13:51;99734.00;;;14.50
20736;BMP180;10528;52.124;5.196;2024-03-02T01:16:19;99753.00;;;14.40
20736;BMP180;10528;52.124;5.196;2024-03-02T01:18:47;99744.00;;;14.40
20736;BMP180;10528;52.124;5.196;2024-03-02T01:21:15;99746.00;;;14.40
20736;BMP180;10528;52.124;5.196;2024-03-02T01:23:42;99756.00;;;14.40
20736;BMP180;10528;52.124;5.196;2024-03-02T01:26:09;99752.00;;;14.40
20736;BMP180;10528;52.124;5.196;2024-03-02T01:28:36;99753.00;;;14.40
20736;BMP180;10528;52.124;5.196;2024-03-02T01:31:03;99743.00;;;14.30
20736;BMP180;10528;52.124;5.196;2024-03-02T01:33:30;99745.00;;;14.30
20736;BMP180;10528;52.124;5.196;2024-03-02T01:35:57;99767.00;;;14.30
20736;BMP180;10528;52.124;5.196;2024-03-02T01:38:23;99768.00;;;14.30
20736;BMP180;10528;52.124;5.196;2024-03-02T01:40:50;99767.00;;;14.30
20736;BMP180;10528;52.124;5.196;2024-03-02T01:43:18;99758.00;;;14.30
20736;BMP180;10528;52.124;5.196;2024-03-02T01:45:45;99768.00;;;14.30
20736;BMP180;10528;52.124;5.196;2024-03-02T01:48:12;99776.00;;;14.20
20736;BMP180;10528;52.124;5.196;2024-03-02T01:50:39;99781.00;;;14.20
20736;BMP180;10528;52.124;5.196;2024-03-02T01:53:08;99782.00;;;14.20
20736;BMP180;10528;52.124;5.196;2024-03-02T01:55:35;99776.00;;;14.20
20736;BMP180;10528;52.124;5.196;2024-03-02T01:58:02;99778.00;;;14.20
20736;BMP180;10528;52.124;5.196;2024-03-02T02:00:29;99779.00;;;14.10
20736;BMP180;10528;52.124;5.196;2024-03-02T02:02:57;99771.00;;;14.10
20736;BMP180;10528;52.124;5.196;2024-03-02T02:05:24;99763.00;;;14.10
20736;BMP180;10528;52.124;5.196;2024-03-02T02:07:51;99767.00;;;14.10
20736;BMP180;10528;52.124;5.196;2024-03-02T02:10:18;99770.00;;;14.10
20736;BMP180;10528;52.124;5.196;2024-03-02T02:12:45;99786.00;;;14.10
20736;BMP180;10528;52.124;5.196;2024-03-02T02:15:29;99790.00;;;14.10
20736;BMP180;10528;52.124;5.196;2024-03-02T02:17:58;99790.00;;;14.10
20736;BMP180;10528;52.124;5.196;2024-03-02T02:20:26;99780.00;;;14.10
20736;BMP180;10528;52.124;5.196;2024-03-02T02:23:01;99760.00;;;14.00
20736;BMP180;10528;52.124;5.196;2024-03-02T02:25:29;99764.00;;;14.00
20736;BMP180;10528;52.124;5.196;2024-03-02T02:27:57;99767.00;;;14.00
20736;BMP180;10528;52.124;5.196;2024-03-02T02:30:31;99761.00;;;14.00
20736;BMP180;10528;52.124;5.196;2024-03-02T02:32:59;99760.00;;;14.00
20736;BMP180;10528;52.124;5.196;2024-03-02T02:35:26;99770.00;;;14.00
20736;BMP180;10528;52.124;5.196;2024-03-02T02:37:55;99784.00;;;14.00
20736;BMP180;10528;52.124;5.196;2024-03-02T02:40:22;99782.00;;;13.90
20736;BMP180;10528;52.124;5.196;2024-03-02T02:42:50;99774.00;;;13.90
20736;BMP180;10528;52.124;5.196;2024-03-02T02:45:19;99784.00;;;13.90
20736;BMP180;10528;52.124;5.196;2024-03-02T02:47:46;99768.00;;;13.90
20736;BMP180;10528;52.124;5.196;2024-03-02T02:50:14;99772.00;;;13.90
20736;BMP180;10528;52.124;5.196;2024-03-02T02:52:42;99777.00;;;13.90
20736;BMP180;10528;52.124;5.196;2024-03-02T02:55:11;99778.00;;;13.90
20736;BMP180;10528;52.124;5.196;2024-03-02T02:57:42;99772.00;;;13.90
20736;BMP180;10528;52.124;5.196;2024-03-02T03:00:14;99780.00;;;13.90
20736;BMP180;10528;52.124;5.196;2024-03-02T03:02:48;99773.00;;;13.80
20736;BMP180;10528;52.124;5.196;2024-03-02T03:05:18;99767.00;;;13.80
20736;BMP180;10528;52.124;5.196;2024-03-02T03:07:45;99780.00;;;13.80
20736;BMP180;10528;52.124;5.196;2024-03-02T03:10:13;99776.00;;;13.80
20736;BMP180;10528;52.124;5.196;2024-03-02T03:12:42;99775.00;;;13.80
20736;BMP180;10528;52.124;5.196;2024-03-02T03:15:11;99774.00;;;13.80
20736;BMP180;10528;52.124;5.196;2024-03-02T03:17:41;99778.00;;;13.80
20736;BMP180;10528;52.124;5.196;2024-03-02T03:20:09;99781.00;;;13.80
20736;BMP180;10528;52.124;5.196;2024-03-02T03:22:39;99777.00;;;13.80
20736;BMP180;10528;52.124;5.196;2024-03-02T03:25:06;99770.00;;;13.70
20736;BMP180;10528;52.124;5.196;2024-03-02T03:27:36;99784.00;;;13.70
20736;BMP180;10528;52.124;5.196;2024-03-02T03:30:04;99770.00;;;13.70
20736;BMP180;10528;52.124;5.196;2024-03-02T03:32:33;99775.00;;;13.70
20736;BMP180;10528;52.124;5.196;2024-03-02T03:35:00;99786.00;;;13.70
20736;BMP180;10528;52.124;5.196;2024-03-02T03:37:27;99783.00;;;13.70
20736;BMP180;10528;52.124;5.196;2024-03-02T03:40:03;99786.00;;;13.70
20736;BMP180;10528;52.124;5.196;2024-03-02T03:42:37;99794.00;;;13.70
20736;BMP180;10528;52.124;5.196;2024-03-02T03:45:05;99789.00;;;13.70
20736;BMP180;10528;52.124;5.196;2024-03-02T03:47:33;99795.00;;;13.70
20736;BMP180;10528;52.124;5.196;2024-03-02T03:50:00;99786.00;;;13.70
20736;BMP180;10528;52.124;5.196;2024-03-02T03:52:27;99805.00;;;13.70
20736;BMP180;10528;52.124;5.196;2024-03-02T03:54:53;99804.00;;;13.70
20736;BMP180;10528;52.124;5.196;2024-03-02T03:57:20;99803.00;;;13.70
20736;BMP180;10528;52.124;5.196;2024-03-02T03:59:47;99802.00;;;13.70
20736;BMP180;10528;52.124;5.196;2024-03-02T04:02:14;99808.00;;;13.70
20736;BMP180;10528;52.124;5.196;2024-03-02T04:04:41;99793.00;;;13.70
20736;BMP180;10528;52.124;5.196;2024-03-02T04:07:09;99804.00;;;13.70
20736;BMP180;10528;52.124;5.196;2024-03-02T04:09:35;99808.00;;;13.70
20736;BMP180;10528;52.124;5.196;2024-03-02T04:12:03;99817.00;;;13.70
20736;BMP180;10528;52.124;5.196;2024-03-02T04:14:30;99818.00;;;13.70
20736;BMP180;10528;52.124;5.196;2024-03-02T04:16:57;99817.00;;;13.70
20736;BMP180;10528;52.124;5.196;2024-03-02T04:19:23;99822.00;;;13.70
20736;BMP180;10528;52.124;5.196;2024-03-02T04:21:50;99809.00;;;13.70
20736;BMP180;10528;52.124;5.196;2024-03-02T04:24:17;99820.00;;;13.70
20736;BMP180;10528;52.124;5.196;2024-03-02T04:26:44;99819.00;;;13.70
20736;BMP180;10528;52.124;5.196;2024-03-02T04:29:11;99817.00;;;13.70
20736;BMP180;10528;52.124;5.196;2024-03-02T04:31:38;99807.00;;;13.70
20736;BMP180;10528;52.124;5.196;2024-03-02T04:34:05;99812.00;;;13.70
20736;BMP180;10528;52.124;5.196;2024-03-02T04:36:32;99818.00;;;13.70
20736;BMP180;10528;52.124;5.196;2024-03-02T04:38:59;99808.00;;;13.70
20736;BMP180;10528;52.124;5.196;2024-03-02T04:41:26;99813.00;;;13.70
20736;BMP180;10528;52.124;5.196;2024-03-02T04:43:53;99822.00;;;13.70
20736;BMP180;10528;52.124;5.196;2024-03-02T04:46:19;99825.00;;;13.70
20736;BMP180;10528;52.124;5.196;2024-03-02T04:48:46;99821.00;;;13.70
20736;BMP180;10528;52.124;5.196;2024-03-02T04:51:13;99826.00;;;13.70
20736;BMP180;10528;52.124;5.196;2024-03-02T04:53:40;99825.00;;;13.60
20736;BMP180;10528;52.124;5.196;2024-03-02T04:56:07;99821.00;;;13.60
20736;BMP180;10528;52.124;5.196;2024-03-02T04:58:49;99833.00;;;13.60
20736;BMP180;10528;52.124;5.196;2024-03-02T05:01:16;99839.00;;;13.50
20736;BMP180;10528;52.124;5.196;2024-03-02T05:03:44;99836.00;;;13.50
20736;BMP180;10528;52.124;5.196;2024-03-02T05:06:12;99835.00;;;13.40
20736;BMP180;10528;52.124;5.196;2024-03-02T05:08:38;99849.00;;;13.50
20736;BMP180;10528;52.124;5.196;2024-03-02T05:11:05;99838.00;;;13.50
20736;BMP180;10528;52.124;5.196;2024-03-02T05:13:51;99837.00;;;13.40
20736;BMP180;10528;52.124;5.196;2024-03-02T05:16:18;99845.00;;;13.40
20736;BMP180;10528;52.124;5.196;2024-03-02T05:18:45;99850.00;;;13.40
20736;BMP180;10528;52.124;5.196;2024-03-02T05:21:11;99848.00;;;13.40
20736;BMP180;10528;52.124;5.196;2024-03-02T05:23:39;99854.00;;;13.30
20736;BMP180;10528;52.124;5.196;2024-03-02T05:26:06;99851.00;;;13.30
20736;BMP180;10528;52.124;5.196;2024-03-02T05:28:33;99857.00;;;13.30
20736;BMP180;10528;52.124;5.196;2024-03-02T05:30:59;99859.00;;;13.30
20736;BMP180;10528;52.124;5.196;2024-03-02T05:33:26;99856.00;;;13.30
20736;BMP180;10528;52.124;5.196;2024-03-02T05:35:53;99857.00;;;13.30
20736;BMP180;10528;52.124;5.196;2024-03-02T05:38:20;99859.00;;;13.30
20736;BMP180;10528;52.124;5.196;2024-03-02T05:40:48;99857.00;;;13.30
20736;BMP180;10528;52.124;5.196;2024-03-02T05:43:15;99861.00;;;13.30
20736;BMP180;10528;52.124;5.196;2024-03-02T05:45:42;99858.00;;;13.20
20736;BMP180;10528;52.124;5.196;2024-03-02T05:48:09;99868.00;;;13.20
20736;BMP180;10528;52.124;5.196;2024-03-02T05:50:36;99862.00;;;13.20
20736;BMP180;10528;52.124;5.196;2024-03-02T05:53:03;99873.00;;;13.20
20736;BMP180;10528;52.124;5.196;2024-03-02T05:55:30;99866.00;;;13.20
20736;BMP180;10528;52.124;5.196;2024-03-02T05:57:57;99874.00;;;13.20
20736;BMP180;10528;52.124;5.196;2024-03-02T06:00:24;99885.00;;;13.20
20736;BMP180;10528;52.124;5.196;2024-03-02T06:02:51;99885.00;;;13.20
20736;BMP180;10528;52.124;5.196;2024-03-02T06:05:19;99880.00;;;13.20
20736;BMP180;10528;52.124;5.196;2024-03-02T06:07:46;99883.00;;;13.20
20736;BMP180;10528;52.124;5.196;2024-03-02T06:10:13;99886.00;;;13.30
20736;BMP180;10528;52.124;5.196;2024-03-02T06:12:41;99889.00;;;13.30
20736;BMP180;10528;52.124;5.196;2024-03-02T06:15:08;99884.00;;;13.30
20736;BMP180;10528;52.124;5.196;2024-03-02T06:17:36;99889.00;;;13.30
20736;BMP180;10528;52.124;5.196;2024-03-02T06:20:03;99888.00;;;13.30
20736;BMP180;10528;52.124;5.196;2024-03-02T06:22:30;99882.00;;;13.30
20736;BMP180;10528;52.124;5.196;2024-03-02T06:24:57;99906.00;;;13.30
20736;BMP180;10528;52.124;5.196;2024-03-02T06:27:24;99900.00;;;13.40
20736;BMP180;10528;52.124;5.196;2024-03-02T06:29:51;99897.00;;;13.40
20736;BMP180;10528;52.124;5.196;2024-03-02T06:32:18;99897.00;;;13.40
20736;BMP180;10528;52.124;5.196;2024-03-02T06:34:45;99904.00;;;13.40
20736;BMP180;10528;52.124;5.196;2024-03-02T06:37:12;99904.00;;;13.40
20736;BMP180;10528;52.124;5.196;2024-03-02T06:39:39;99909.00;;;13.40
20736;BMP180;10528;52.124;5.196;2024-03-02T06:42:06;99895.00;;;13.40
20736;BMP180;10528;52.124;5.196;2024-03-02T06:44:34;99898.00;;;13.40
20736;BMP180;10528;52.124;5.196;2024-03-02T06:47:01;99912.00;;;13.40
20736;BMP180;10528;52.124;5.196;2024-03-02T06:49:28;99904.00;;;13.40
20736;BMP180;10528;52.124;5.196;2024-03-02T06:51:54;99904.00;;;13.40
20736;BMP180;10528;52.124;5.196;2024-03-02T06:54:22;99906.00;;;13.40
20736;BMP180;10528;52.124;5.196;2024-03-02T06:56:49;99910.00;;;13.40
20736;BMP180;10528;52.124;5.196;2024-03-02T06:59:16;99904.00;;;13.40
20736;BMP180;10528;52.124;5.196;2024-03-02T07:01:43;99901.00;;;13.40
20736;BMP180;10528;52.124;5.196;2024-03-02T07:04:10;99907.00;;;13.40
20736;BMP180;10528;52.124;5.196;2024-03-02T07:06:37;99905.00;;;13.40
20736;BMP180;10528;52.124;5.196;2024-03-02T07:09:04;99915.00;;;13.40
20736;BMP180;10528;52.124;5.196;2024-03-02T07:11:31;99912.00;;;13.40
20736;BMP180;10528;52.124;5.196;2024-03-02T07:14:00;99916.00;;;13.50
20736;BMP180;10528;52.124;5.196;2024-03-02T07:16:27;99911.00;;;13.50
20736;BMP180;10528;52.124;5.196;2024-03-02T07:18:59;99903.00;;;13.60
20736;BMP180;10528;52.124;5.196;2024-03-02T07:21:28;99914.00;;;13.70
20736;BMP180;10528;52.124;5.196;2024-03-02T07:23:55;99917.00;;;13.70
20736;BMP180;10528;52.124;5.196;2024-03-02T07:26:22;99924.00;;;13.80
20736;BMP180;10528;52.124;5.196;2024-03-02T07:28:52;99930.00;;;13.80
20736;BMP180;10528;52.124;5.196;2024-03-02T07:31:19;99928.00;;;13.80
20736;BMP180;10528;52.124;5.196;2024-03-02T07:33:46;99923.00;;;13.90
20736;BMP180;10528;52.124;5.196;2024-03-02T07:36:14;99925.00;;;13.90
20736;BMP180;10528;52.124;5.196;2024-03-02T07:38:43;99934.00;;;13.90
20736;BMP180;10528;52.124;5.196;2024-03-02T07:41:11;99941.00;;;13.90
20736;BMP180;10528;52.124;5.196;2024-03-02T07:43:38;99949.00;;;13.90
20736;BMP180;10528;52.124;5.196;2024-03-02T07:46:05;99939.00;;;13.80
20736;BMP180;10528;52.124;5.196;2024-03-02T07:48:35;99954.00;;;13.80
20736;BMP180;10528;52.124;5.196;2024-03-02T07:51:02;99950.00;;;13.80
20736;BMP180;10528;52.124;5.196;2024-03-02T07:53:29;99964.00;;;13.80
20736;BMP180;10528;52.124;5.196;2024-03-02T07:55:56;99967.00;;;13.80
20736;BMP180;10528;52.124;5.196;2024-03-02T07:58:29;99951.00;;;13.80
20736;BMP180;10528;52.124;5.196;2024-03-02T08:00:57;99953.00;;;13.70
20736;BMP180;10528;52.124;5.196;2024-03-02T08:03:24;99954.00;;;13.70
20736;BMP180;10528;52.124;5.196;2024-03-02T08:05:51;99954.00;;;13.70
20736;BMP180;10528;52.124;5.196;2024-03-02T08:08:18;99963.00;;;13.70
20736;BMP180;10528;52.124;5.196;2024-03-02T08:10:45;99954.00;;;13.70
20736;BMP180;10528;52.124;5.196;2024-03-02T08:13:12;99958.00;;;13.70
20736;BMP180;10528;52.124;5.196;2024-03-02T08:15:39;99965.00;;;13.60
20736;BMP180;10528;52.124;5.196;2024-03-02T08:18:06;99965.00;;;13.60
20736;BMP180;10528;52.124;5.196;2024-03-02T08:20:33;99959.00;;;13.60
20736;BMP180;10528;52.124;5.196;2024-03-02T08:23:00;99966.00;;;13.60
20736;BMP180;10528;52.124;5.196;2024-03-02T08:25:27;99955.00;;;13.60
20736;BMP180;10528;52.124;5.196;2024-03-02T08:27:54;99958.00;;;13.60
20736;BMP180;10528;52.124;5.196;2024-03-02T08:30:21;99971.00;;;13.70
20736;BMP180;10528;52.124;5.196;2024-03-02T08:32:49;99958.00;;;13.70
20736;BMP180;10528;52.124;5.196;2024-03-02T08:35:16;99953.00;;;13.70
20736;BMP180;10528;52.124;5.196;2024-03-02T08:37:43;99948.00;;;13.70
20736;BMP180;10528;52.124;5.196;2024-03-02T08:40:11;99949.00;;;13.70
20736;BMP180;10528;52.124;5.196;2024-03-02T08:42:43;99947.00;;;13.70
20736;BMP180;10528;52.124;5.196;2024-03-02T08:45:10;99955.00;;;13.80
20736;BMP180;10528;52.124;5.196;2024-03-02T08:47:38;99955.00;;;13.80
20736;BMP180;10528;52.124;5.196;2024-03-02T08:50:07;99946.00;;;13.80
20736;BMP180;10528;52.124;5.196;2024-03-02T08:52:35;99951.00;;;13.80
20736;BMP180;10528;52.124;5.196;2024-03-02T08:55:02;99942.00;;;13.80
20736;BMP180;10528;52.124;5.196;2024-03-02T08:57:30;99947.00;;;13.90
20736;BMP180;10528;52.124;5.196;2024-03-02T08:59:57;99956.00;;;13.90
20736;BMP180;10528;52.124;5.196;2024-03-02T09:02:25;99954.00;;;13.90
20736;BMP180;10528;52.124;5.196;2024-03-02T09:04:52;99950.00;;;13.90
20736;BMP180;10528;52.124;5.196;2024-03-02T09:07:19;99962.00;;;13.90
20736;BMP180;10528;52.124;5.196;2024-03-02T09:09:46;99963.00;;;14.00
20736;BMP180;10528;52.124;5.196;2024-03-02T09:12:13;99962.00;;;14.00
20736;BMP180;10528;52.124;5.196;2024-03-02T09:14:40;99957.00;;;14.10
20736;BMP180;10528;52.124;5.196;2024-03-02T09:17:08;99960.00;;;14.10
20736;BMP180;10528;52.124;5.196;2024-03-02T09:19:38;99968.00;;;14.10
20736;BMP180;10528;52.124;5.196;2024-03-02T09:22:05;99965.00;;;14.20
20736;BMP180;10528;52.124;5.196;2024-03-02T09:24:32;99967.00;;;14.20
20736;BMP180;10528;52.124;5.196;2024-03-02T09:27:00;99980.00;;;14.20
20736;BMP180;10528;52.124;5.196;2024-03-02T09:29:27;99980.00;;;14.30
20736;BMP180;10528;52.124;5.196;2024-03-02T09:31:54;99973.00;;;14.30
20736;BMP180;10528;52.124;5.196;2024-03-02T09:34:20;99984.00;;;14.40
20736;BMP180;10528;52.124;5.196;2024-03-02T09:36:51;99990.00;;;14.40
20736;BMP180;10528;52.124;5.196;2024-03-02T09:39:19;99974.00;;;14.40
20736;BMP180;10528;52.124;5.196;2024-03-02T09:41:48;99975.00;;;14.50
20736;BMP180;10528;52.124;5.196;2024-03-02T09:44:15;99968.00;;;14.60
20736;BMP180;10528;52.124;5.196;2024-03-02T09:46:42;99969.00;;;14.60
20736;BMP180;10528;52.124;5.196;2024-03-02T09:49:11;99970.00;;;14.60
20736;BMP180;10528;52.124;5.196;2024-03-02T09:51:38;99967.00;;;14.70
20736;BMP180;10528;52.124;5.196;2024-03-02T09:54:08;99975.00;;;14.80
20736;BMP180;10528;52.124;5.196;2024-03-02T09:56:47;99971.00;;;14.90
20736;BMP180;10528;52.124;5.196;2024-03-02T09:59:15;99980.00;;;15.00
20736;BMP180;10528;52.124;5.196;2024-03-02T10:02:01;99970.00;;;15.00
20736;BMP180;10528;52.124;5.196;2024-03-02T10:04:30;99973.00;;;15.10
20736;BMP180;10528;52.124;5.196;2024-03-02T10:07:18;99976.00;;;15.10
20736;BMP180;10528;52.124;5.196;2024-03-02T10:09:48;99976.00;;;15.20
20736;BMP180;10528;52.124;5.196;2024-03-02T10:12:17;99976.00;;;15.30
20736;BMP180;10528;52.124;5.196;2024-03-02T10:14:45;99981.00;;;15.40
20736;BMP180;10528;52.124;5.196;2024-03-02T10:17:14;99986.00;;;15.50
20736;BMP180;10528;52.124;5.196;2024-03-02T10:19:42;99974.00;;;15.60
20736;BMP180;10528;52.124;5.196;2024-03-02T10:22:10;99969.00;;;15.70
20736;BMP180;10528;52.124;5.196;2024-03-02T10:24:42;99977.00;;;15.70
20736;BMP180;10528;52.124;5.196;2024-03-02T10:27:27;99981.00;;;15.80
20736;BMP180;10528;52.124;5.196;2024-03-02T10:29:54;99974.00;;;15.90
20736;BMP180;10528;52.124;5.196;2024-03-02T10:32:22;99971.00;;;16.00
20736;BMP180;10528;52.124;5.196;2024-03-02T10:34:50;99974.00;;;16.10
20736;BMP180;10528;52.124;5.196;2024-03-02T10:37:17;99973.00;;;16.10
20736;BMP180;10528;52.124;5.196;2024-03-02T10:39:46;99970.00;;;16.20
20736;BMP180;10528;52.124;5.196;2024-03-02T10:42:14;99975.00;;;16.30
20736;BMP180;10528;52.124;5.196;2024-03-02T10:44:42;99959.00;;;16.30
20736;BMP180;10528;52.124;5.196;2024-03-02T10:47:13;99963.00;;;16.30
20736;BMP180;10528;52.124;5.196;2024-03-02T10:49:42;99960.00;;;16.30
20736;BMP180;10528;52.124;5.196;2024-03-02T10:52:10;99955.00;;;16.40
20736;BMP180;10528;52.124;5.196;2024-03-02T10:54:37;99954.00;;;16.40
20736;BMP180;10528;52.124;5.196;2024-03-02T10:57:07;99935.00;;;16.50
20736;BMP180;10528;52.124;5.196;2024-03-02T10:59:46;99937.00;;;16.50
20736;BMP180;10528;52.124;5.196;2024-03-02T11:02:21;99951.00;;;16.60
20736;BMP180;10528;52.124;5.196;2024-03-02T11:04:51;99936.00;;;16.70
20736;BMP180;10528;52.124;5.196;2024-03-02T11:07:22;99951.00;;;16.70
20736;BMP180;10528;52.124;5.196;2024-03-02T11:10:01;99953.00;;;16.70
20736;BMP180;10528;52.124;5.196;2024-03-02T11:12:39;99953.00;;;16.80
20736;BMP180;10528;52.124;5.196;2024-03-02T11:15:14;99951.00;;;16.80
20736;BMP180;10528;52.124;5.196;2024-03-02T11:17:44;99963.00;;;16.90
20736;BMP180;10528;52.124;5.196;2024-03-02T11:20:14;99950.00;;;16.90
20736;BMP180;10528;52.124;5.196;2024-03-02T11:22:41;99951.00;;;17.00
20736;BMP180;10528;52.124;5.196;2024-03-02T11:25:24;99956.00;;;17.00
20736;BMP180;10528;52.124;5.196;2024-03-02T11:33:04;99952.00;;;17.10
20736;BMP180;10528;52.124;5.196;2024-03-02T11:35:45;99941.00;;;17.10
20736;BMP180;10528;52.124;5.196;2024-03-02T11:38:14;99945.00;;;17.10
20736;BMP180;10528;52.124;5.196;2024-03-02T11:40:41;99940.00;;;17.20
20736;BMP180;10528;52.124;5.196;2024-03-02T11:43:09;99949.00;;;17.20
20736;BMP180;10528;52.124;5.196;2024-03-02T11:45:37;99945.00;;;17.20
20736;BMP180;10528;52.124;5.196;2024-03-02T11:48:14;99941.00;;;17.30
20736;BMP180;10528;52.124;5.196;2024-03-02T11:50:47;99936.00;;;17.30
20736;BMP180;10528;52.124;5.196;2024-03-02T11:53:16;99926.00;;;17.40
20736;BMP180;10528;52.124;5.196;2024-03-02T11:55:45;99938.00;;;17.40
20736;BMP180;10528;52.124;5.196;2024-03-02T11:58:16;99944.00;;;17.50
20736;BMP180;10528;52.124;5.196;2024-03-02T12:00:54;99941.00;;;17.50
20736;BMP180;10528;52.124;5.196;2024-03-02T12:03:25;99923.00;;;17.50
20736;BMP180;10528;52.124;5.196;2024-03-02T12:05:54;99919.00;;;17.50
20736;BMP180;10528;52.124;5.196;2024-03-02T12:08:21;99922.00;;;17.40
20736;BMP180;10528;52.124;5.196;2024-03-02T12:11:00;99911.00;;;17.40
20736;BMP180;10528;52.124;5.196;2024-03-02T12:13:29;99916.00;;;17.50
20736;BMP180;10528;52.124;5.196;2024-03-02T12:15:56;99906.00;;;17.50
20736;BMP180;10528;52.124;5.196;2024-03-02T12:18:24;99902.00;;;17.50
20736;BMP180;10528;52.124;5.196;2024-03-02T12:20:52;99904.00;;;17.50
20736;BMP180;10528;52.124;5.196;2024-03-02T12:23:20;99895.00;;;17.50
20736;BMP180;10528;52.124;5.196;2024-03-02T12:25:47;99899.00;;;17.50
20736;BMP180;10528;52.124;5.196;2024-03-02T12:28:14;99903.00;;;17.60
20736;BMP180;10528;52.124;5.196;2024-03-02T12:30:41;99888.00;;;17.60
20736;BMP180;10528;52.124;5.196;2024-03-02T12:33:11;99885.00;;;17.60
20736;BMP180;10528;52.124;5.196;2024-03-02T12:35:38;99886.00;;;17.70
20736;BMP180;10528;52.124;5.196;2024-03-02T12:38:06;99882.00;;;17.70
20736;BMP180;10528;52.124;5.196;2024-03-02T12:40:33;99874.00;;;17.70
20736;BMP180;10528;52.124;5.196;2024-03-02T12:43:00;99878.00;;;17.70
20736;BMP180;10528;52.124;5.196;2024-03-02T12:45:27;99880.00;;;17.80
20736;BMP180;10528;52.124;5.196;2024-03-02T12:47:54;99884.00;;;17.80
20736;BMP180;10528;52.124;5.196;2024-03-02T12:50:21;99860.00;;;17.80
20736;BMP180;10528;52.124;5.196;2024-03-02T12:52:53;99865.00;;;17.80
20736;BMP180;10528;52.124;5.196;2024-03-02T12:55:24;99877.00;;;17.90
20736;BMP180;10528;52.124;5.196;2024-03-02T12:57:52;99864.00;;;17.90
20736;BMP180;10528;52.124;5.196;2024-03-02T13:00:21;99876.00;;;17.90
20736;BMP180;10528;52.124;5.196;2024-03-02T13:02:50;99862.00;;;17.90
20736;BMP180;10528;52.124;5.196;2024-03-02T13:05:18;99876.00;;;18.00
20736;BMP180;10528;52.124;5.196;2024-03-02T13:07:48;99858.00;;;18.00
20736;BMP180;10528;52.124;5.196;2024-03-02T13:10:17;99863.00;;;18.10
20736;BMP180;10528;52.124;5.196;2024-03-02T13:12:45;99862.00;;;18.10
20736;BMP180;10528;52.124;5.196;2024-03-02T13:15:12;99868.00;;;18.10
20736;BMP180;10528;52.124;5.196;2024-03-02T13:17:45;99869.00;;;18.10
20736;BMP180;10528;52.124;5.196;2024-03-02T13:20:15;99873.00;;;18.20
20736;BMP180;10528;52.124;5.196;2024-03-02T13:22:44;99877.00;;;18.20
20736;BMP180;10528;52.124;5.196;2024-03-02T13:25:10;99870.00;;;18.20
20736;BMP180;10528;52.124;5.196;2024-03-02T13:27:39;99865.00;;;18.10
20736;BMP180;10528;52.124;5.196;2024-03-02T13:30:07;99852.00;;;18.10
20736;BMP180;10528;52.124;5.196;2024-03-02T13:32:36;99858.00;;;18.10
20736;BMP180;10528;52.124;5.196;2024-03-02T13:35:03;99856.00;;;18.20
20736;BMP180;10528;52.124;5.196;2024-03-02T13:37:31;99849.00;;;18.20
20736;BMP180;10528;52.124;5.196;2024-03-02T13:39:57;99859.00;;;18.20
20736;BMP180;10528;52.124;5.196;2024-03-02T13:42:25;99847.00;;;18.20
20736;BMP180;10528;52.124;5.196;2024-03-02T13:44:52;99856.00;;;18.20
20736;BMP180;10528;52.124;5.196;2024-03-02T13:47:19;99856.00;;;18.20
20736;BMP180;10528;52.124;5.196;2024-03-02T13:49:47;99846.00;;;18.20
20736;BMP180;10528;52.124;5.196;2024-03-02T13:52:22;99841.00;;;18.20
20736;BMP180;10528;52.124;5.196;2024-03-02T13:54:49;99850.00;;;18.20
20736;BMP180;10528;52.124;5.196;2024-03-02T13:57:16;99845.00;;;18.10
20736;BMP180;10528;52.124;5.196;2024-03-02T13:59:49;99850.00;;;18.10
20736;BMP180;10528;52.124;5.196;2024-03-02T14:02:17;99849.00;;;18.10
20736;BMP180;10528;52.124;5.196;2024-03-02T14:04:44;99841.00;;;18.10
20736;BMP180;10528;52.124;5.196;2024-03-02T14:07:11;99840.00;;;18.10
20736;BMP180;10528;52.124;5.196;2024-03-02T14:09:38;99838.00;;;18.00
20736;BMP180;10528;52.124;5.196;2024-03-02T14:12:06;99822.00;;;18.00
20736;BMP180;10528;52.124;5.196;2024-03-02T14:14:33;99823.00;;;18.00
20736;BMP180;10528;52.124;5.196;2024-03-02T14:17:00;99820.00;;;18.00
20736;BMP180;10528;52.124;5.196;2024-03-02T14:19:31;99819.00;;;18.00
20736;BMP180;10528;52.124;5.196;2024-03-02T14:21:58;99819.00;;;17.90
20736;BMP180;10528;52.124;5.196;2024-03-02T14:24:26;99809.00;;;17.90